Time;durP1;ratioP1;P1;durP2;ratioP2;P2;SDS_P1;SDS_P2;PMS_P1;PMS_P2;Temp;Humidity;BMP_temperature;BMP_pressure;BME280_temperature;BME280_humidity;BME280_pressure;Samples;Min_cycle;Max_cycle;Signal;HPM_P1;HPM_P2
2021/12/31 00:02:01;;;;;;;0.65;0.57;;;20.70;60.20;;;;;;4968487;28;97224;-58
2021/12/31 00:04:33;;;;;;;0.70;0.70;;;20.80;60.10;;;;;;4975201;28;97563;-59
2021/12/31 00:07:04;;;;;;;0.68;0.60;;;20.80;59.70;;;;;;4979827;28;95994;-59
2021/12/31 00:09:36;;;;;;;1.15;0.77;;;20.80;59.50;;;;;;4977331;28;96652;-66
2021/12/31 00:12:08;;;;;;;1.35;0.50;;;20.90;59.40;;;;;;4992957;28;95899;-57
2021/12/31 00:14:40;;;;;;;0.50;0.50;;;20.90;59.20;;;;;;4973655;28;97044;-64
2021/12/31 00:17:11;;;;;;;1.52;0.70;;;21.00;59.20;;;;;;4957822;28;96251;-58
2021/12/31 00:19:45;;;;;;;;;;;21.00;58.90;;;;;;4974757;28;96125;-56
2021/12/31 00:24:51;;;;;;;1.70;0.85;;;21.10;58.60;;;;;;4980498;28;96382;-59
2021/12/31 00:27:23;;;;;;;1.13;0.73;;;21.10;58.20;;;;;;4980624;28;95924;-58
2021/12/31 00:29:53;;;;;;;4.70;0.60;;;21.20;58.30;;;;;;4979992;28;96123;-62
2021/12/31 00:32:23;;;;;;;2.10;0.65;;;21.30;58.20;;;;;;4980157;28;95940;-57
2021/12/31 00:34:54;;;;;;;2.70;0.90;;;21.30;58.00;;;;;;4980975;28;95916;-65
2021/12/31 00:37:28;;;;;;;3.58;0.60;;;21.30;57.80;;;;;;4975765;28;95769;-64
2021/12/31 00:40:01;;;;;;;0.77;0.60;;;21.30;57.40;;;;;;4977058;28;96045;-58
2021/12/31 00:42:32;;;;;;;2.40;0.75;;;21.30;57.30;;;;;;4973799;28;96559;-57
2021/12/31 00:45:06;;;;;;;0.80;0.60;;;21.30;57.30;;;;;;4979244;28;95949;-58
2021/12/31 00:47:37;;;;;;;2.30;0.80;;;21.40;57.20;;;;;;4970790;28;95352;-58
2021/12/31 00:50:10;;;;;;;0.93;0.68;;;21.40;56.90;;;;;;4978913;28;96146;-58
2021/12/31 00:52:40;;;;;;;2.17;0.63;;;21.50;56.70;;;;;;4980536;28;95538;-65
2021/12/31 00:55:13;;;;;;;0.43;0.40;;;21.50;56.50;;;;;;4972202;28;95811;-66
2021/12/31 00:57:46;;;;;;;2.55;0.65;;;21.60;56.40;;;;;;4974810;28;95397;-61
2021/12/31 01:00:18;;;;;;;1.38;0.60;;;21.60;56.40;;;;;;4974554;28;99548;-58
2021/12/31 01:02:50;;;;;;;0.82;0.50;;;21.70;56.30;;;;;;5004300;28;102421;-58
2021/12/31 01:05:21;;;;;;;1.70;0.57;;;21.70;56.80;;;;;;5003234;28;95563;-57
2021/12/31 01:07:52;;;;;;;5.32;0.60;;;21.70;56.00;;;;;;4993557;28;95958;-58
2021/12/31 01:10:27;;;;;;;1.42;0.57;;;21.80;55.70;;;;;;4996508;28;96810;-59
2021/12/31 01:12:59;;;;;;;0.90;0.50;;;21.80;55.60;;;;;;4997011;28;95794;-63
2021/12/31 01:20:41;;;;;;;0.93;0.40;;;22.20;56.00;;;;;;5000107;28;96478;-58
2021/12/31 01:23:16;;;;;;;0.85;0.50;;;22.40;56.10;;;;;;4995840;28;95883;-57
2021/12/31 01:25:47;;;;;;;3.05;0.60;;;22.50;56.00;;;;;;4991868;28;97324;-59
2021/12/31 01:28:19;;;;;;;;;;;22.70;56.20;;;;;;4994681;28;97787;-59
2021/12/31 01:30:49;;;;;;;0.50;0.50;;;22.80;56.20;;;;;;4985304;28;95990;-59
2021/12/31 01:33:19;;;;;;;2.72;0.40;;;22.90;56.50;;;;;;5009357;28;95957;-59
2021/12/31 01:35:49;;;;;;;1.25;0.70;;;23.00;56.40;;;;;;4998968;28;95955;-59
2021/12/31 01:38:19;;;;;;;0.97;0.53;;;23.10;56.40;;;;;;4996285;28;95575;-59
2021/12/31 01:40:51;;;;;;;2.30;0.73;;;23.00;55.20;;;;;;4988930;28;96935;-62
2021/12/31 01:43:22;;;;;;;0.65;0.50;;;22.90;55.10;;;;;;4986719;28;95852;-61
2021/12/31 01:45:56;;;;;;;6.32;1.00;;;22.80;54.90;;;;;;4985964;28;95777;-60
2021/12/31 01:48:35;;;;;;;1.05;0.55;;;22.80;55.20;;;;;;4999342;28;95782;-63
2021/12/31 01:51:05;;;;;;;0.45;0.45;;;23.00;55.60;;;;;;5000989;28;98920;-63
2021/12/31 01:53:35;;;;;;;6.13;0.80;;;23.20;55.60;;;;;;4998883;28;97664;-62
2021/12/31 01:56:09;;;;;;;3.20;0.60;;;23.30;55.30;;;;;;5003244;28;95868;-60
2021/12/31 01:58:41;;;;;;;3.05;0.50;;;23.40;55.50;;;;;;5003129;28;95673;-61
2021/12/31 02:01:12;;;;;;;1.02;0.68;;;23.60;55.60;;;;;;5006640;28;96715;-62
2021/12/31 02:03:44;;;;;;;0.57;0.57;;;23.70;55.80;;;;;;5000781;28;96316;-61
2021/12/31 02:06:15;;;;;;;1.13;0.40;;;23.80;55.80;;;;;;5004631;28;95418;-63
2021/12/31 02:08:45;;;;;;;1.35;0.45;;;23.90;55.90;;;;;;4989050;28;95804;-59
2021/12/31 02:11:18;;;;;;;0.47;0.47;;;24.10;55.90;;;;;;5003192;28;96914;-62
2021/12/31 02:13:49;;;;;;;0.75;0.40;;;24.20;56.00;;;;;;5006099;28;95869;-60
2021/12/31 02:16:20;;;;;;;0.43;0.43;;;24.40;56.00;;;;;;4987900;28;97623;-62
2021/12/31 02:18:52;;;;;;;0.50;0.50;;;24.50;55.90;;;;;;4999499;28;96127;-62
2021/12/31 02:21:22;;;;;;;0.65;0.60;;;24.60;55.90;;;;;;5004497;28;95938;-60
2021/12/31 02:24:01;;;;;;;0.30;0.30;;;24.70;55.90;;;;;;5004972;28;96883;-60
2021/12/31 02:26:33;;;;;;;0.82;0.68;;;24.90;56.00;;;;;;5006878;28;96161;-62
2021/12/31 02:29:03;;;;;;;;;;;25.00;55.90;;;;;;5003850;28;96008;-56
2021/12/31 02:31:34;;;;;;;0.40;0.40;;;25.10;55.80;;;;;;4987421;28;96179;-60
2021/12/31 02:34:05;;;;;;;0.38;0.38;;;25.30;56.00;;;;;;4978584;28;95927;-58
2021/12/31 02:36:36;;;;;;;0.85;0.50;;;25.40;55.70;;;;;;4965811;28;95945;-57
2021/12/31 02:39:06;;;;;;;0.85;0.40;;;25.50;56.10;;;;;;4981227;28;95444;-61
2021/12/31 02:41:37;;;;;;;0.40;0.40;;;25.70;56.10;;;;;;4978044;28;96920;-58
2021/12/31 02:44:08;;;;;;;0.47;0.47;;;25.80;56.10;;;;;;4970024;28;97522;-61
2021/12/31 02:46:38;;;;;;;0.45;0.40;;;25.90;55.90;;;;;;4983887;28;100462;-58
2021/12/31 02:49:08;;;;;;;1.63;0.47;;;26.00;55.80;;;;;;4997994;28;95835;-64
2021/12/31 02:51:39;;;;;;;1.58;0.50;;;26.10;55.80;;;;;;4994234;28;97927;-64
2021/12/31 02:54:11;;;;;;;1.00;0.70;;;25.90;51.60;;;;;;4997013;28;96263;-62
2021/12/31 02:56:42;;;;;;;1.98;0.43;;;25.50;51.00;;;;;;4983377;28;96632;-63
2021/12/31 02:59:14;;;;;;;1.80;0.65;;;25.30;51.10;;;;;;4995611;28;95816;-58
2021/12/31 03:01:46;;;;;;;3.92;0.45;;;25.20;50.50;;;;;;4989235;28;98639;-66
2021/12/31 03:04:18;;;;;;;0.75;0.40;;;25.10;49.50;;;;;;4994463;28;95938;-57
2021/12/31 03:06:55;;;;;;;0.43;0.43;;;25.00;49.70;;;;;;4993560;28;95351;-64
2021/12/31 03:09:28;;;;;;;1.48;0.77;;;24.90;49.10;;;;;;4995219;28;96306;-64
2021/12/31 03:12:01;;;;;;;1.63;0.80;;;24.90;49.10;;;;;;4994378;28;96093;-62
2021/12/31 03:14:34;;;;;;;4.10;0.70;;;24.90;48.80;;;;;;4995024;28;96472;-64
2021/12/31 03:17:06;;;;;;;1.30;0.60;;;24.80;48.90;;;;;;4983618;28;95884;-64
2021/12/31 03:19:38;;;;;;;2.28;0.65;;;24.80;48.50;;;;;;4986610;28;96188;-62
2021/12/31 03:22:10;;;;;;;0.73;0.40;;;24.80;48.70;;;;;;5001799;28;96018;-63
2021/12/31 03:24:41;;;;;;;;;;;24.70;48.50;;;;;;4998965;28;96037;-63
2021/12/31 03:27:12;;;;;;;2.97;0.63;;;24.70;48.40;;;;;;5000670;28;95947;-60
2021/12/31 03:29:42;;;;;;;0.68;0.60;;;24.60;48.10;;;;;;4985783;28;95931;-59
2021/12/31 03:32:15;;;;;;;0.65;0.63;;;24.70;48.10;;;;;;4973259;28;98196;-61
2021/12/31 03:34:47;;;;;;;3.55;0.70;;;24.60;48.00;;;;;;5001821;28;96469;-64
2021/12/31 03:37:18;;;;;;;2.42;0.80;;;24.60;48.40;;;;;;4997053;28;95961;-64
2021/12/31 03:39:48;;;;;;;2.85;0.90;;;24.70;48.20;;;;;;4998810;28;95847;-63
2021/12/31 03:42:19;;;;;;;0.40;0.40;;;24.60;48.40;;;;;;4990457;28;96398;-63
2021/12/31 03:44:51;;;;;;;4.35;0.80;;;24.60;48.30;;;;;;4999276;28;96250;-66
2021/12/31 03:47:21;;;;;;;1.55;0.70;;;24.60;48.30;;;;;;4969471;28;97063;-62
2021/12/31 03:49:53;;;;;;;1.17;0.50;;;24.50;48.40;;;;;;4976648;28;95742;-63
2021/12/31 03:52:23;;;;;;;3.33;0.90;;;24.50;48.50;;;;;;4975709;28;95873;-64
2021/12/31 03:54:53;;;;;;;2.87;0.73;;;24.50;48.50;;;;;;4978355;28;95618;-63
2021/12/31 03:57:23;;;;;;;2.03;0.70;;;24.50;48.50;;;;;;4981908;28;95734;-59
2021/12/31 03:59:54;;;;;;;2.67;0.70;;;24.40;48.50;;;;;;4971293;28;95717;-63
2021/12/31 04:02:27;;;;;;;4.78;0.80;;;24.40;48.50;;;;;;4974249;28;99376;-64
2021/12/31 04:05:00;;;;;;;2.30;0.60;;;24.40;48.40;;;;;;4982292;28;95863;-62
2021/12/31 04:07:32;;;;;;;2.70;0.68;;;24.40;48.40;;;;;;4977763;28;95665;-60
2021/12/31 04:10:05;;;;;;;1.38;0.63;;;24.40;48.40;;;;;;4979398;28;95822;-63
2021/12/31 04:12:38;;;;;;;2.13;0.52;;;24.30;48.20;;;;;;5006596;28;98030;-63
2021/12/31 04:15:09;;;;;;;1.85;0.50;;;24.30;48.30;;;;;;4964566;28;97585;-63
2021/12/31 04:17:40;;;;;;;1.92;0.82;;;24.30;48.20;;;;;;4975449;28;97559;-62
2021/12/31 04:20:19;;;;;;;1.88;0.68;;;24.30;48.20;;;;;;4981989;28;95645;-58
2021/12/31 04:22:54;;;;;;;2.15;0.75;;;24.30;48.20;;;;;;4982058;28;96179;-58
2021/12/31 04:25:26;;;;;;;4.55;0.68;;;24.30;48.20;;;;;;4988834;28;98386;-59
2021/12/31 04:27:57;;;;;;;0.60;0.50;;;24.30;48.00;;;;;;4986917;28;95986;-58
2021/12/31 04:30:27;;;;;;;0.98;0.55;;;24.30;48.00;;;;;;4971946;28;95557;-60
2021/12/31 04:32:58;;;;;;;2.05;0.60;;;24.30;48.10;;;;;;4977854;28;96142;-62
2021/12/31 04:35:28;;;;;;;0.80;0.55;;;24.30;48.00;;;;;;4980259;28;96240;-63
2021/12/31 04:37:59;;;;;;;0.50;0.50;;;24.30;47.90;;;;;;4978285;28;95544;-63
2021/12/31 04:40:30;;;;;;;0.82;0.65;;;24.30;47.90;;;;;;4987202;28;95404;-60
2021/12/31 04:43:01;;;;;;;0.60;0.55;;;24.30;47.90;;;;;;4976164;28;96208;-61
2021/12/31 04:45:33;;;;;;;0.63;0.50;;;24.30;47.80;;;;;;4967900;28;98326;-60
2021/12/31 04:48:03;;;;;;;;;;;24.30;47.70;;;;;;4981304;28;95277;-60
2021/12/31 04:50:33;;;;;;;0.60;0.60;;;24.30;47.70;;;;;;5008045;27;98695;-63
2021/12/31 04:53:04;;;;;;;0.52;0.52;;;24.30;47.60;;;;;;4979099;28;97597;-57
2021/12/31 04:55:36;;;;;;;0.70;0.60;;;24.30;47.50;;;;;;4972501;28;95867;-62
2021/12/31 04:58:06;;;;;;;1.35;0.60;;;24.30;47.50;;;;;;4983730;28;95355;-59
2021/12/31 05:00:36;;;;;;;1.23;0.70;;;24.40;47.50;;;;;;4974174;28;96103;-62
2021/12/31 05:03:14;;;;;;;1.63;0.50;;;24.30;47.40;;;;;;4987721;28;96512;-58
2021/12/31 05:05:45;;;;;;;0.70;0.52;;;24.40;47.50;;;;;;4978061;28;95879;-62
2021/12/31 05:08:16;;;;;;;1.27;0.70;;;24.30;47.30;;;;;;4984908;28;95254;-63
2021/12/31 05:10:47;;;;;;;0.50;0.50;;;24.30;47.40;;;;;;4984383;28;95799;-58
2021/12/31 05:13:20;;;;;;;0.82;0.60;;;24.40;47.30;;;;;;5000493;28;97207;-59
2021/12/31 05:15:52;;;;;;;0.73;0.68;;;24.40;47.30;;;;;;4967789;28;95982;-63
2021/12/31 05:18:24;;;;;;;0.63;0.50;;;24.40;47.20;;;;;;4978017;28;95901;-62
2021/12/31 05:20:55;;;;;;;0.98;0.50;;;24.40;47.20;;;;;;4985830;28;95702;-62
2021/12/31 05:23:26;;;;;;;2.85;0.70;;;24.40;47.20;;;;;;4982753;28;95940;-63
2021/12/31 05:26:02;;;;;;;0.55;0.30;;;24.40;47.10;;;;;;4983118;28;95839;-59
2021/12/31 05:28:33;;;;;;;0.80;0.60;;;24.40;47.00;;;;;;4974772;28;97678;-58
2021/12/31 05:31:04;;;;;;;0.45;0.40;;;24.40;46.90;;;;;;4980346;28;96030;-59
2021/12/31 05:33:35;;;;;;;0.73;0.60;;;24.40;46.90;;;;;;4983278;28;96651;-60
2021/12/31 05:36:07;;;;;;;0.50;0.50;;;24.40;46.90;;;;;;4976432;28;96055;-59
2021/12/31 05:38:37;;;;;;;0.70;0.63;;;24.40;46.90;;;;;;4979744;28;96227;-60
2021/12/31 05:41:11;;;;;;;0.40;0.40;;;24.40;46.80;;;;;;4982564;28;95717;-62
2021/12/31 05:43:42;;;;;;;0.40;0.40;;;24.40;46.70;;;;;;4980257;28;96628;-62
2021/12/31 05:46:12;;;;;;;0.57;0.30;;;24.40;46.80;;;;;;4965720;28;98561;-58
2021/12/31 05:48:43;;;;;;;1.20;0.60;;;24.40;46.70;;;;;;4984601;28;95890;-62
2021/12/31 05:51:15;;;;;;;0.82;0.60;;;24.40;46.60;;;;;;4976835;28;95352;-62
2021/12/31 05:53:46;;;;;;;0.55;0.55;;;24.40;46.50;;;;;;4979236;28;97123;-63
2021/12/31 05:56:17;;;;;;;0.30;0.30;;;24.40;46.40;;;;;;5007903;28;96276;-61
2021/12/31 05:58:47;;;;;;;1.55;0.60;;;24.40;46.40;;;;;;4981764;28;95931;-60
2021/12/31 06:01:17;;;;;;;;;;;24.40;46.30;;;;;;4962645;28;95412;-58
2021/12/31 06:03:49;;;;;;;0.73;0.50;;;24.50;46.30;;;;;;4973784;28;96215;-62
2021/12/31 06:06:21;;;;;;;1.58;0.55;;;24.40;46.20;;;;;;4975458;28;95704;-58
2021/12/31 06:08:51;;;;;;;1.35;0.50;;;24.40;46.20;;;;;;4871923;28;3067021;-60
2021/12/31 06:11:23;;;;;;;0.50;0.50;;;24.40;46.10;;;;;;4983635;28;96023;-63
2021/12/31 06:14:03;;;;;;;1.40;0.60;;;24.40;46.00;;;;;;4977926;28;96154;-62
2021/12/31 06:16:38;;;;;;;0.32;0.32;;;24.40;46.00;;;;;;4967350;28;95866;-59
2021/12/31 06:19:13;;;;;;;1.25;0.52;;;24.50;46.00;;;;;;4971171;28;96117;-59
2021/12/31 06:21:46;;;;;;;0.63;0.63;;;24.50;45.90;;;;;;4978825;28;95741;-62
2021/12/31 06:24:16;;;;;;;1.05;0.47;;;24.40;45.80;;;;;;4989840;28;97198;-62
2021/12/31 06:26:47;;;;;;;0.50;0.50;;;24.50;43.30;;;;;;4984378;28;96425;-57
2021/12/31 06:29:17;;;;;;;0.93;0.50;;;24.50;45.80;;;;;;4980906;28;95909;-62
2021/12/31 06:31:47;;;;;;;1.45;0.40;;;24.50;45.70;;;;;;4967334;28;95831;-59
2021/12/31 06:34:19;;;;;;;0.50;0.50;;;24.50;45.60;;;;;;4985158;28;96308;-59
2021/12/31 06:36:50;;;;;;;0.50;0.50;;;24.50;45.60;;;;;;4973506;28;95965;-61
2021/12/31 06:39:20;;;;;;;1.40;0.60;;;24.50;45.50;;;;;;4983823;28;95943;-59
2021/12/31 06:41:51;;;;;;;0.43;0.43;;;24.50;45.50;;;;;;4982954;28;95621;-62
2021/12/31 06:44:22;;;;;;;1.00;0.60;;;24.50;45.40;;;;;;4982048;28;96127;-62
2021/12/31 06:46:53;;;;;;;0.65;0.60;;;24.50;45.40;;;;;;4974863;28;95927;-60
2021/12/31 06:49:24;;;;;;;0.50;0.50;;;24.50;45.30;;;;;;4978476;28;95768;-60
2021/12/31 06:51:54;;;;;;;1.42;0.60;;;24.50;45.30;;;;;;4976741;28;95599;-60
2021/12/31 06:54:23;;;;;;;0.52;0.52;;;24.50;45.20;;;;;;4979596;28;96723;-62
2021/12/31 06:56:54;;;;;;;0.40;0.40;;;24.50;45.20;;;;;;4980327;28;95395;-58
2021/12/31 06:59:24;;;;;;;0.52;0.52;;;24.50;45.10;;;;;;4978122;28;95756;-62
2021/12/31 07:01:57;;;;;;;0.73;0.52;;;24.50;45.00;;;;;;4978617;28;95395;-61
2021/12/31 07:04:29;;;;;;;0.40;0.40;;;24.50;45.00;;;;;;4972214;28;95986;-58
2021/12/31 07:07:01;;;;;;;0.50;0.50;;;24.50;44.90;;;;;;5004510;28;96013;-56
2021/12/31 07:09:34;;;;;;;0.50;0.50;;;24.50;44.90;;;;;;4983093;28;95997;-62
2021/12/31 07:12:08;;;;;;;0.50;0.50;;;24.50;44.80;;;;;;4982318;28;95774;-61
2021/12/31 07:14:41;;;;;;;0.50;0.50;;;24.50;44.80;;;;;;4980102;28;96126;-60
2021/12/31 07:17:13;;;;;;;0.50;0.50;;;24.50;44.70;;;;;;4965230;28;97419;-62
2021/12/31 07:19:46;;;;;;;0.40;0.40;;;24.40;44.50;;;;;;4980440;28;96185;-58
2021/12/31 07:22:17;;;;;;;1.17;0.50;;;24.50;44.50;;;;;;4982915;28;95226;-58
2021/12/31 07:24:47;;;;;;;0.40;0.40;;;24.50;44.50;;;;;;4970218;28;98848;-59
2021/12/31 07:27:19;;;;;;;0.50;0.50;;;24.50;44.50;;;;;;4995916;28;97229;-58
2021/12/31 07:29:48;;;;;;;0.57;0.50;;;24.50;44.40;;;;;;4987197;28;95889;-62
2021/12/31 07:32:20;;;;;;;0.45;0.45;;;24.50;45.10;;;;;;4968727;28;98681;-61
2021/12/31 07:34:51;;;;;;;0.35;0.35;;;24.50;44.30;;;;;;4976623;28;96333;-61
2021/12/31 07:37:22;;;;;;;1.55;0.75;;;24.50;44.20;;;;;;4978062;28;96793;-62
2021/12/31 07:40:04;;;;;;;0.40;0.40;;;24.40;44.10;;;;;;4977519;28;95994;-60
2021/12/31 07:42:36;;;;;;;1.42;0.60;;;24.40;44.10;;;;;;4980075;28;95306;-63
2021/12/31 07:45:07;;;;;;;1.15;0.52;;;24.40;44.00;;;;;;4979243;28;96856;-60
2021/12/31 07:47:40;;;;;;;1.95;0.65;;;24.40;44.20;;;;;;4980304;28;95552;-59
2021/12/31 07:50:11;;;;;;;1.55;0.60;;;24.50;45.20;;;;;;4984811;28;95393;-60
2021/12/31 07:52:41;;;;;;;1.08;0.50;;;24.70;45.00;;;;;;4982568;28;96292;-61
2021/12/31 07:55:13;;;;;;;1.03;0.30;;;24.80;45.20;;;;;;4976129;28;96205;-56
2021/12/31 07:57:44;;;;;;;0.70;0.50;;;24.90;45.20;;;;;;4974082;28;96332;-58
2021/12/31 08:00:15;;;;;;;0.50;0.50;;;25.00;45.30;;;;;;4970650;28;95461;-63
2021/12/31 08:02:47;;;;;;;0.75;0.60;;;25.10;45.50;;;;;;4980118;28;95654;-63
2021/12/31 08:05:18;;;;;;;3.58;0.60;;;25.10;45.60;;;;;;4964939;28;98389;-62
2021/12/31 08:07:49;;;;;;;0.60;0.60;;;25.20;45.80;;;;;;4977237;28;95701;-61
2021/12/31 08:10:21;;;;;;;0.60;0.60;;;25.20;45.90;;;;;;4977875;28;95758;-62
2021/12/31 08:13:13;;;;;;;0.40;0.40;;;25.20;46.00;;;;;;4979601;28;95707;-61
2021/12/31 08:15:44;;;;;;;0.52;0.50;;;25.30;46.30;;;;;;4965336;28;98212;-62
2021/12/31 08:18:16;;;;;;;0.50;0.50;;;25.30;46.50;;;;;;4979754;28;96153;-60
2021/12/31 08:20:47;;;;;;;0.40;0.40;;;25.40;46.50;;;;;;4979450;28;95264;-60
2021/12/31 08:23:19;;;;;;;0.65;0.65;;;25.40;46.70;;;;;;4985112;28;96497;-62
2021/12/31 08:25:49;;;;;;;0.50;0.50;;;25.50;46.80;;;;;;4977297;28;96235;-62
2021/12/31 08:28:21;;;;;;;0.40;0.40;;;25.50;46.90;;;;;;4977049;28;95656;-62
2021/12/31 08:30:51;;;;;;;0.98;0.73;;;25.50;47.00;;;;;;4970231;28;95946;-61
2021/12/31 08:33:21;;;;;;;0.98;0.40;;;25.50;47.10;;;;;;4980108;28;95672;-62
2021/12/31 08:35:51;;;;;;;0.52;0.35;;;25.50;47.30;;;;;;4981675;28;96994;-60
2021/12/31 08:38:26;;;;;;;0.30;0.30;;;25.60;47.40;;;;;;4986814;28;95900;-61
2021/12/31 08:40:57;;;;;;;0.55;0.40;;;25.60;47.40;;;;;;5010975;28;95885;-60
2021/12/31 08:43:29;;;;;;;0.50;0.50;;;25.60;47.50;;;;;;4983242;28;95593;-62
2021/12/31 08:45:59;;;;;;;;;;;25.60;47.60;;;;;;4971371;28;96711;-61
2021/12/31 08:48:31;;;;;;;0.43;0.43;;;25.70;47.70;;;;;;4979492;28;96422;-64
2021/12/31 08:51:02;;;;;;;0.40;0.40;;;25.70;47.80;;;;;;5005871;28;95491;-63
2021/12/31 08:53:32;;;;;;;0.50;0.50;;;25.70;47.90;;;;;;4984864;28;95908;-61
2021/12/31 08:56:02;;;;;;;0.30;0.30;;;25.70;48.00;;;;;;4982622;28;98062;-62
2021/12/31 08:58:32;;;;;;;0.50;0.50;;;25.70;48.00;;;;;;4979707;28;96764;-60
2021/12/31 09:01:03;;;;;;;0.40;0.40;;;25.80;48.10;;;;;;4973158;28;95709;-61
2021/12/31 09:03:36;;;;;;;0.50;0.50;;;25.70;48.10;;;;;;4980617;28;95920;-58
2021/12/31 09:06:07;;;;;;;0.22;0.22;;;25.80;48.30;;;;;;4980603;28;96638;-62
2021/12/31 09:08:40;;;;;;;0.40;0.40;;;25.80;48.30;;;;;;4984248;28;95745;-62
2021/12/31 09:11:12;;;;;;;0.50;0.50;;;25.80;48.50;;;;;;4980885;28;96009;-61
2021/12/31 09:13:46;;;;;;;2.28;0.50;;;25.80;48.40;;;;;;4974006;28;95776;-60
2021/12/31 09:16:17;;;;;;;0.88;0.43;;;25.80;48.50;;;;;;4973038;28;96768;-57
2021/12/31 09:18:49;;;;;;;0.43;0.43;;;25.80;48.60;;;;;;4984830;28;96033;-60
2021/12/31 09:21:22;;;;;;;2.60;0.68;;;25.80;48.60;;;;;;4988047;28;95436;-61
2021/12/31 09:23:52;;;;;;;0.40;0.40;;;25.90;48.70;;;;;;4987765;28;95579;-59
2021/12/31 09:26:24;;;;;;;0.73;0.50;;;25.80;48.70;;;;;;4986866;28;96477;-59
2021/12/31 09:28:57;;;;;;;0.40;0.40;;;25.80;48.80;;;;;;4985493;28;96309;-58
2021/12/31 09:31:27;;;;;;;0.40;0.40;;;25.90;48.90;;;;;;4980451;28;95931;-61
2021/12/31 09:33:58;;;;;;;0.40;0.40;;;25.90;49.00;;;;;;4989224;28;95804;-59
2021/12/31 09:36:31;;;;;;;0.50;0.50;;;25.80;49.00;;;;;;4982181;28;96711;-63
2021/12/31 09:39:02;;;;;;;2.20;0.68;;;25.90;49.00;;;;;;4984842;28;96010;-64
2021/12/31 09:41:34;;;;;;;0.50;0.50;;;25.90;49.70;;;;;;4978489;28;95805;-58
2021/12/31 09:44:06;;;;;;;1.38;0.50;;;25.90;49.10;;;;;;4982629;28;96129;-62
2021/12/31 09:46:36;;;;;;;1.02;0.70;;;25.90;49.10;;;;;;4972068;28;96090;-63
2021/12/31 09:49:07;;;;;;;0.50;0.50;;;25.90;49.10;;;;;;4980026;28;95921;-63
2021/12/31 09:51:42;;;;;;;2.72;0.57;;;25.90;49.20;;;;;;4977470;28;96179;-61
2021/12/31 09:54:12;;;;;;;0.75;0.68;;;25.90;49.20;;;;;;4980912;28;96496;-58
2021/12/31 09:56:42;;;;;;;0.43;0.43;;;25.80;49.10;;;;;;4977562;28;97223;-64
2021/12/31 09:59:13;;;;;;;1.07;0.40;;;25.80;49.10;;;;;;4981761;28;99546;-59
2021/12/31 10:01:48;;;;;;;;;;;25.80;49.10;;;;;;4972266;28;95793;-58
2021/12/31 10:04:20;;;;;;;0.50;0.50;;;25.80;49.10;;;;;;5010933;28;95356;-59
2021/12/31 10:07:07;;;;;;;0.65;0.50;;;25.80;49.20;;;;;;4980799;28;96962;-63
2021/12/31 10:09:40;;;;;;;0.50;0.50;;;25.80;49.10;;;;;;4978402;28;96276;-63
2021/12/31 10:12:16;;;;;;;0.50;0.50;;;25.80;49.10;;;;;;4981464;28;95789;-57
2021/12/31 10:14:47;;;;;;;1.63;0.50;;;25.80;49.10;;;;;;4983842;28;95870;-63
2021/12/31 10:17:34;;;;;;;;;;;25.80;49.10;;;;;;4987557;28;96357;-59
2021/12/31 10:20:06;;;;;;;0.68;0.65;;;25.80;49.10;;;;;;4977074;28;95767;-62
2021/12/31 10:22:37;;;;;;;1.02;0.52;;;25.80;49.10;;;;;;4980637;28;96050;-63
2021/12/31 10:25:19;;;;;;;0.63;0.50;;;25.70;49.10;;;;;;4978837;28;97760;-60
2021/12/31 10:28:07;;;;;;;1.83;0.57;;;25.70;49.10;;;;;;4980370;28;97087;-58
2021/12/31 10:30:37;;;;;;;0.85;0.60;;;25.70;49.10;;;;;;4973867;28;96152;-58
2021/12/31 10:33:08;;;;;;;2.90;0.60;;;25.70;49.10;;;;;;4983579;28;95996;-61
2021/12/31 10:35:39;;;;;;;0.40;0.40;;;25.70;49.10;;;;;;4977030;28;96058;-57
2021/12/31 10:38:12;;;;;;;1.30;0.75;;;25.70;49.20;;;;;;4986895;28;95917;-59
2021/12/31 10:40:45;;;;;;;1.80;0.50;;;25.70;49.20;;;;;;4984527;28;95747;-57
2021/12/31 10:43:22;;;;;;;1.70;0.63;;;25.70;49.20;;;;;;4985207;28;95232;-63
2021/12/31 10:46:10;;;;;;;2.10;0.63;;;25.60;49.20;;;;;;4971428;28;95806;-60
2021/12/31 10:48:48;;;;;;;0.95;0.47;;;25.60;49.20;;;;;;4985860;28;96954;-59
2021/12/31 10:51:43;;;;;;;0.95;0.65;;;25.60;49.30;;;;;;4984724;28;95753;-59
2021/12/31 10:54:27;;;;;;;0.65;0.60;;;25.60;49.30;;;;;;4979302;28;95706;-57
2021/12/31 10:57:00;;;;;;;0.77;0.45;;;25.50;49.20;;;;;;4999412;28;95824;-59
2021/12/31 10:59:37;;;;;;;0.55;0.55;;;25.50;49.30;;;;;;4996089;28;98139;-62
2021/12/31 11:02:08;;;;;;;1.40;0.52;;;25.50;49.40;;;;;;4973202;28;96366;-59
2021/12/31 11:04:40;;;;;;;1.95;0.73;;;25.50;49.40;;;;;;4984016;28;95740;-62
2021/12/31 11:07:12;;;;;;;0.50;0.50;;;25.50;49.40;;;;;;4979629;28;96511;-57
2021/12/31 11:09:43;;;;;;;0.68;0.68;;;25.50;49.50;;;;;;4983114;28;96549;-60
2021/12/31 11:12:17;;;;;;;0.65;0.50;;;25.50;49.50;;;;;;4998630;28;95858;-62
2021/12/31 11:14:49;;;;;;;3.42;0.93;;;25.50;49.60;;;;;;4974496;28;95930;-60
2021/12/31 11:17:26;;;;;;;1.17;0.90;;;25.30;47.90;;;;;;4968071;28;97507;-58
2021/12/31 11:19:57;;;;;;;2.38;1.00;;;25.00;47.60;;;;;;4982989;28;96373;-56
2021/12/31 11:22:30;;;;;;;4.60;1.35;;;24.90;47.50;;;;;;4981533;28;96516;-57
2021/12/31 11:25:24;;;;;;;3.22;1.10;;;24.70;47.30;;;;;;4977850;28;97003;-60
2021/12/31 11:27:58;;;;;;;3.33;0.90;;;24.60;47.00;;;;;;4975435;28;95383;-58
2021/12/31 11:30:42;;;;;;;3.80;1.15;;;24.50;46.80;;;;;;4967089;28;95754;-59
2021/12/31 11:33:18;;;;;;;1.98;1.25;;;24.40;44.40;;;;;;5017821;28;102245;-58
2021/12/31 11:36:04;;;;;;;2.30;1.30;;;24.40;46.70;;;;;;4978315;28;95538;-64
2021/12/31 11:38:46;;;;;;;0.98;0.90;;;24.30;46.70;;;;;;4983207;28;95459;-64
2021/12/31 11:41:24;;;;;;;3.90;1.42;;;24.30;46.70;;;;;;5011298;28;97130;-62
2021/12/31 11:44:11;;;;;;;2.92;1.42;;;24.20;47.00;;;;;;4971992;28;96239;-58
2021/12/31 11:46:45;;;;;;;1.75;1.30;;;24.20;47.40;;;;;;4968821;28;95933;-60
2021/12/31 11:49:21;;;;;;;4.22;1.38;;;24.20;47.80;;;;;;4976740;28;95504;-63
2021/12/31 11:52:01;;;;;;;5.20;1.52;;;24.20;48.20;;;;;;5017686;28;96040;-63
2021/12/31 11:54:32;;;;;;;3.10;1.50;;;24.20;48.50;;;;;;4981604;28;95565;-62
2021/12/31 11:57:06;;;;;;;3.92;1.63;;;24.20;48.70;;;;;;4978981;28;95823;-59
2021/12/31 11:59:43;;;;;;;5.28;1.95;;;24.10;48.80;;;;;;4980885;28;95840;-56
2021/12/31 12:02:21;;;;;;;13.57;2.90;;;24.10;49.10;;;;;;4972337;28;96253;-60
2021/12/31 12:04:59;;;;;;;29.35;3.78;;;23.90;50.10;;;;;;4972252;28;95869;-61
2021/12/31 12:07:37;;;;;;;17.52;3.72;;;23.80;51.20;;;;;;4975098;28;95545;-57
2021/12/31 12:10:12;;;;;;;14.02;3.97;;;23.80;51.90;;;;;;4998970;28;95804;-59
2021/12/31 12:12:49;;;;;;;14.65;2.90;;;23.70;52.80;;;;;;4982102;28;96537;-59
2021/12/31 12:15:21;;;;;;;11.52;3.72;;;23.60;50.70;;;;;;4966768;28;96547;-60
2021/12/31 12:17:51;;;;;;;;;;;23.60;54.00;;;;;;4973786;28;96133;-62
2021/12/31 12:20:33;;;;;;;29.17;4.40;;;23.70;53.80;;;;;;4983337;28;95326;-60
2021/12/31 12:23:17;;;;;;;21.20;4.30;;;23.50;55.20;;;;;;5005961;28;96361;-62
2021/12/31 12:25:47;;;;;;;10.73;3.88;;;23.30;57.00;;;;;;4970083;28;96073;-59
2021/12/31 12:28:21;;;;;;;9.52;3.53;;;23.20;56.80;;;;;;5007397;28;95829;-62
2021/12/31 12:31:03;;;;;;;17.83;4.32;;;23.30;57.10;;;;;;4982199;28;95632;-60
2021/12/31 12:33:34;;;;;;;20.00;3.65;;;23.30;57.70;;;;;;5003220;28;96046;-59
2021/12/31 12:36:06;;;;;;;18.00;3.63;;;23.20;58.40;;;;;;4995555;28;96187;-59
2021/12/31 12:38:39;;;;;;;13.25;4.00;;;23.30;58.40;;;;;;4995477;28;95774;-60
2021/12/31 12:41:09;;;;;;;;;;;23.30;58.50;;;;;;4980647;28;95766;-60
2021/12/31 12:43:50;;;;;;;13.93;3.80;;;23.30;58.30;;;;;;5007490;28;96496;-60
2021/12/31 12:46:24;;;;;;;17.27;3.33;;;23.30;58.70;;;;;;4988914;28;95923;-62
2021/12/31 12:48:57;;;;;;;17.00;3.95;;;23.20;58.80;;;;;;4999631;28;95469;-58
2021/12/31 12:51:31;;;;;;;13.25;3.35;;;23.20;59.30;;;;;;5009876;28;95749;-57
2021/12/31 12:54:05;;;;;;;12.68;3.65;;;23.20;59.80;;;;;;4992951;28;98368;-62
2021/12/31 12:56:35;;;;;;;17.55;4.00;;;23.20;60.10;;;;;;5001931;28;95850;-62
2021/12/31 12:59:06;;;;;;;13.90;4.28;;;23.10;60.60;;;;;;5003878;28;95869;-62
2021/12/31 13:01:42;;;;;;;17.63;3.95;;;23.10;60.50;;;;;;4988286;28;97527;-61
2021/12/31 13:04:14;;;;;;;85.75;10.38;;;23.10;60.80;;;;;;4998931;28;96430;-62
2021/12/31 13:07:07;;;;;;;141.50;15.45;;;23.10;60.90;;;;;;4997695;28;95616;-62
2021/12/31 13:09:37;;;;;;;106.22;16.80;;;23.10;61.10;;;;;;4998208;28;95779;-61
2021/12/31 13:12:15;;;;;;;81.78;12.60;;;23.10;61.20;;;;;;4992931;28;95605;-62
2021/12/31 13:14:48;;;;;;;51.88;8.55;;;23.10;61.00;;;;;;4994860;28;96745;-62
2021/12/31 13:17:25;;;;;;;65.18;9.93;;;23.00;60.40;;;;;;4992952;28;95427;-61
2021/12/31 13:20:21;;;;;;;54.55;6.82;;;22.90;61.10;;;;;;4997792;28;95339;-62
2021/12/31 13:22:56;;;;;;;37.60;6.85;;;22.90;61.20;;;;;;4995934;28;95733;-61
2021/12/31 13:25:48;;;;;;;32.15;6.03;;;22.90;60.90;;;;;;5005719;28;98799;-62